createdAt,value
2018-09-25T00:01:05.650Z,3.07
2018-09-25T00:03:39.290Z,3.07
2018-09-25T00:06:13.009Z,3.12
2018-09-25T00:08:47.221Z,3.07
2018-09-25T00:11:20.893Z,3.11
2018-09-25T00:13:54.634Z,3.17
2018-09-25T00:16:28.427Z,3.16
2018-09-25T00:19:03.622Z,2.98
2018-09-25T00:21:37.274Z,3.04
2018-09-25T00:24:11.036Z,2.94
2018-09-25T00:26:44.679Z,2.80
2018-09-25T00:29:19.521Z,2.81
2018-09-25T00:31:53.182Z,2.80
2018-09-25T00:34:26.887Z,2.82
2018-09-25T00:37:00.567Z,2.80
2018-09-25T00:39:35.343Z,2.91
2018-09-25T00:42:09.097Z,2.72
2018-09-25T00:44:42.954Z,2.69
2018-09-25T00:47:16.826Z,2.71
2018-09-25T00:49:52.043Z,2.73
2018-09-25T00:52:25.764Z,2.61
2018-09-25T00:54:59.486Z,2.61
2018-09-25T00:57:33.361Z,2.58
2018-09-25T01:00:08.389Z,2.55
2018-09-25T01:02:42.070Z,2.58
2018-09-25T01:05:15.865Z,2.54
2018-09-25T01:07:49.730Z,2.48
2018-09-25T01:10:24.324Z,2.51
2018-09-25T01:12:57.974Z,2.58
2018-09-25T01:15:31.819Z,2.51
2018-09-25T01:18:05.650Z,2.48
2018-09-25T01:20:40.043Z,2.58
2018-09-25T01:23:13.739Z,2.57
2018-09-25T01:25:47.646Z,2.56
2018-09-25T01:28:21.310Z,2.58
2018-09-25T01:30:55.637Z,2.49
2018-09-25T01:33:29.437Z,2.41
2018-09-25T01:36:03.140Z,2.37
2018-09-25T01:38:36.820Z,2.49
2018-09-25T01:41:10.866Z,2.45
2018-09-25T01:43:44.658Z,2.47
2018-09-25T01:46:18.466Z,2.49
2018-09-25T01:48:52.370Z,2.46
2018-09-25T01:51:26.805Z,2.49
2018-09-25T01:54:00.454Z,2.47
2018-09-25T01:56:34.238Z,2.52
2018-09-25T01:59:07.790Z,2.49
2018-09-25T02:01:42.169Z,2.41
2018-09-25T02:04:15.906Z,2.25
2018-09-25T02:06:49.719Z,2.28
2018-09-25T02:09:23.405Z,2.25
2018-09-25T02:11:58.450Z,2.33
2018-09-25T02:14:32.102Z,2.46
2018-09-25T02:17:05.933Z,2.27
2018-09-25T02:19:39.725Z,2.20
2018-09-25T02:22:14.648Z,2.21
2018-09-25T02:24:48.466Z,2.08
2018-09-25T02:27:22.211Z,2.17
2018-09-25T02:29:56.073Z,2.10
2018-09-25T02:32:30.745Z,2.11
2018-09-25T02:35:04.902Z,1.99
2018-09-25T02:37:38.597Z,2.04
2018-09-25T02:40:12.342Z,2.10
2018-09-25T02:42:46.862Z,2.06
2018-09-25T02:45:21.153Z,2.18
2018-09-25T02:47:54.699Z,2.18
2018-09-25T02:50:28.290Z,2.13
2018-09-25T02:53:03.011Z,2.02
2018-09-25T02:55:36.702Z,2.01
2018-09-25T02:58:10.393Z,1.99
2018-09-25T03:00:43.909Z,2.06
2018-09-25T03:03:17.966Z,1.98
2018-09-25T03:05:51.650Z,1.97
2018-09-25T03:08:25.482Z,2.00
2018-09-25T03:10:59.134Z,1.89
2018-09-25T03:13:33.850Z,2.05
2018-09-25T03:16:07.618Z,2.00
2018-09-25T03:18:41.456Z,1.96
2018-09-25T03:21:15.302Z,1.95
2018-09-25T03:23:54.943Z,1.89
2018-09-25T03:26:29.667Z,1.99
2018-09-25T03:29:03.359Z,2.01
2018-09-25T03:31:37.122Z,2.01
2018-09-25T03:34:11.941Z,2.11
2018-09-25T03:36:45.602Z,2.08
2018-09-25T03:39:19.262Z,2.03
2018-09-25T03:41:52.930Z,1.92
2018-09-25T03:44:27.897Z,1.99
2018-09-25T03:47:01.722Z,1.99
2018-09-25T03:49:35.541Z,1.87
2018-09-25T03:52:09.346Z,1.84
2018-09-25T03:54:43.830Z,2.05
2018-09-25T03:57:17.490Z,1.85
2018-09-25T03:59:51.202Z,1.89
2018-09-25T04:02:25.514Z,1.91
2018-09-25T04:04:59.961Z,1.94
2018-09-25T04:07:33.619Z,1.83
2018-09-25T04:10:07.398Z,1.75
2018-09-25T04:12:41.038Z,1.70
2018-09-25T04:15:15.249Z,1.81
2018-09-25T04:17:48.890Z,1.71
2018-09-25T04:20:22.625Z,1.70
2018-09-25T04:22:56.542Z,1.65
2018-09-25T04:25:30.985Z,1.70
2018-09-25T04:28:04.735Z,1.72
2018-09-25T04:30:38.606Z,1.78
2018-09-25T04:33:12.417Z,1.75
2018-09-25T04:35:47.290Z,1.87
2018-09-25T04:38:20.962Z,1.75
2018-09-25T04:40:54.653Z,1.68
2018-09-25T04:43:28.449Z,1.62
2018-09-25T04:46:02.258Z,1.51
2018-09-25T04:48:35.990Z,1.50
2018-09-25T04:51:09.674Z,1.48
2018-09-25T04:53:43.373Z,1.51
2018-09-25T04:56:17.719Z,1.47
2018-09-25T04:58:51.626Z,1.39
2018-09-25T05:01:25.462Z,1.50
2018-09-25T05:03:59.213Z,1.47
2018-09-25T05:06:33.211Z,1.48
2018-09-25T05:09:07.038Z,1.36
2018-09-25T05:11:40.853Z,1.44
2018-09-25T05:14:14.566Z,1.58
2018-09-25T05:16:49.310Z,1.53
2018-09-25T05:19:23.105Z,1.52
2018-09-25T05:21:56.798Z,1.51
2018-09-25T05:24:30.654Z,1.49
2018-09-25T05:27:05.371Z,1.48
2018-09-25T05:29:39.059Z,1.54
2018-09-25T05:32:12.833Z,1.55
2018-09-25T05:34:46.414Z,1.62
2018-09-25T05:37:20.514Z,1.62
2018-09-25T05:39:54.294Z,1.72
2018-09-25T05:42:28.002Z,1.65
2018-09-25T05:45:01.637Z,1.58
2018-09-25T05:47:37.368Z,1.60
2018-09-25T05:50:11.141Z,1.71
2018-09-25T05:52:44.837Z,1.75
2018-09-25T05:55:18.563Z,1.81
2018-09-25T05:57:52.534Z,1.93
2018-09-25T06:00:26.413Z,2.03
2018-09-25T06:03:00.250Z,2.20
2018-09-25T06:05:34.103Z,2.25
2018-09-25T06:08:08.414Z,2.31
2018-09-25T06:10:42.222Z,2.46
2018-09-25T06:13:15.953Z,2.47
2018-09-25T06:15:49.709Z,2.60
2018-09-25T06:18:24.330Z,2.70
2018-09-25T06:20:58.093Z,2.76
2018-09-25T06:23:31.729Z,2.87
2018-09-25T06:26:05.376Z,3.27
2018-09-25T06:28:39.759Z,4.87
2018-09-25T06:31:13.533Z,7.74
2018-09-25T06:33:47.350Z,10.18
2018-09-25T06:36:21.178Z,10.71
2018-09-25T06:38:55.282Z,12.09
2018-09-25T06:41:28.994Z,13.95
2018-09-25T06:44:02.678Z,14.15
2018-09-25T06:46:36.487Z,15.26
2018-09-25T06:49:10.595Z,15.05
2018-09-25T06:51:44.306Z,16.19
2018-09-25T06:54:18.026Z,16.52
2018-09-25T06:56:51.714Z,15.10
2018-09-25T06:59:26.141Z,16.15
2018-09-25T07:01:59.968Z,18.13
2018-09-25T07:04:33.774Z,18.98
2018-09-25T07:07:07.515Z,20.49
2018-09-25T07:09:42.319Z,20.14
2018-09-25T07:12:16.211Z,20.45
2018-09-25T07:14:49.894Z,20.62
2018-09-25T07:17:23.641Z,22.18
2018-09-25T07:19:58.613Z,23.92
2018-09-25T07:22:32.368Z,23.37
2018-09-25T07:25:06.170Z,24.52
2018-09-25T07:27:39.802Z,24.54
2018-09-25T07:30:13.957Z,23.59
2018-09-25T07:32:47.754Z,24.06
2018-09-25T07:35:21.525Z,24.38
2018-09-25T07:37:55.401Z,24.72
2018-09-25T07:40:29.262Z,25.65
2018-09-25T07:43:13.647Z,24.65
2018-09-25T07:45:48.547Z,25.88
2018-09-25T07:48:22.502Z,25.72
2018-09-25T07:50:56.174Z,26.43
2018-09-25T07:53:30.621Z,25.13
2018-09-25T07:56:04.271Z,27.50
2018-09-25T07:58:38.953Z,27.29
2018-09-25T08:01:12.791Z,27.36
2018-09-25T08:03:46.483Z,26.89
2018-09-25T08:06:20.454Z,26.37
2018-09-25T08:08:55.522Z,27.72
2018-09-25T08:11:29.264Z,27.83
2018-09-25T08:14:02.943Z,28.75
2018-09-25T08:16:36.518Z,28.29
2018-09-25T08:19:11.788Z,28.69
2018-09-25T08:21:45.468Z,30.04
2018-09-25T08:24:20.186Z,28.56
2018-09-25T08:26:54.334Z,29.05
2018-09-25T08:29:30.087Z,29.33
2018-09-25T08:32:04.158Z,29.18
2018-09-25T08:34:38.102Z,27.65
2018-09-25T08:37:12.326Z,28.31
2018-09-25T08:39:46.490Z,29.34
2018-09-25T08:42:20.266Z,30.26
2018-09-25T08:44:54.407Z,26.57
2018-09-25T08:47:28.518Z,29.12
2018-09-25T08:50:03.099Z,27.63
2018-09-25T08:52:37.658Z,29.45
2018-09-25T08:55:11.404Z,29.75
2018-09-25T08:57:45.271Z,30.56
2018-09-25T09:00:19.237Z,29.31
2018-09-25T09:02:53.410Z,29.82
2018-09-25T09:05:27.098Z,29.37
2018-09-25T09:08:02.373Z,29.90
2018-09-25T09:10:36.911Z,29.51
2018-09-25T09:13:11.090Z,29.71
2018-09-25T09:15:44.946Z,29.95
2018-09-25T09:18:18.732Z,30.31
2018-09-25T09:20:54.322Z,30.11
2018-09-25T09:23:28.716Z,29.17
2018-09-25T09:26:02.454Z,30.79
2018-09-25T09:28:36.266Z,30.74
2018-09-25T09:31:11.238Z,32.59
2018-09-25T09:33:45.811Z,28.60
2018-09-25T09:36:19.598Z,29.54
2018-09-25T09:38:53.347Z,29.79
2018-09-25T09:41:28.489Z,28.29
2018-09-25T09:44:02.490Z,29.95
2018-09-25T09:46:36.170Z,30.18
2018-09-25T09:49:09.862Z,30.41
2018-09-25T09:51:44.985Z,30.14
2018-09-25T09:54:18.873Z,31.41
2018-09-25T09:56:52.480Z,30.93
2018-09-25T09:59:26.287Z,30.99
2018-09-25T10:02:01.441Z,31.39
2018-09-25T10:04:35.227Z,30.32
2018-09-25T10:07:08.917Z,30.90
2018-09-25T10:09:42.930Z,29.45
2018-09-25T10:12:17.093Z,29.76
2018-09-25T10:14:50.695Z,31.15
2018-09-25T10:17:24.794Z,30.58
2018-09-25T10:19:58.827Z,30.15
2018-09-25T10:22:33.376Z,31.44
2018-09-25T10:25:07.163Z,29.53
2018-09-25T10:27:40.970Z,32.64
2018-09-25T10:30:15.014Z,31.88
2018-09-25T10:32:50.069Z,31.29
2018-09-25T10:35:23.678Z,32.03
2018-09-25T10:37:57.394Z,32.14
2018-09-25T10:40:31.114Z,30.86
2018-09-25T10:43:05.341Z,33.39
2018-09-25T10:45:39.057Z,32.99
2018-09-25T10:48:12.825Z,32.45
2018-09-25T10:50:46.961Z,30.39
2018-09-25T10:53:21.491Z,27.01
2018-09-25T10:55:55.229Z,21.89
2018-09-25T10:58:29.373Z,23.31
2018-09-25T11:01:03.478Z,24.62
2018-09-25T11:03:38.630Z,21.28
2018-09-25T11:06:13.049Z,25.35
2018-09-25T11:08:46.726Z,27.32
2018-09-25T11:11:20.461Z,21.62
2018-09-25T11:13:55.292Z,20.56
2018-09-25T11:16:28.929Z,19.45
2018-09-25T11:19:03.170Z,22.82
2018-09-25T11:21:36.847Z,25.59
2018-09-25T11:24:11.669Z,27.09
2018-09-25T11:26:45.324Z,29.26
2018-09-25T11:29:18.990Z,29.87
2018-09-25T11:31:53.094Z,30.32
2018-09-25T11:34:27.434Z,29.22
2018-09-25T11:37:01.007Z,31.21
2018-09-25T11:39:34.806Z,30.10
2018-09-25T11:42:08.529Z,28.87
2018-09-25T11:44:42.591Z,29.68
2018-09-25T11:47:16.329Z,28.96
2018-09-25T11:49:50.224Z,29.12
2018-09-25T11:52:24.138Z,27.79
2018-09-25T11:54:59.687Z,31.06
2018-09-25T11:57:33.429Z,28.11
2018-09-25T12:00:07.142Z,23.87
2018-09-25T12:02:40.938Z,21.19
2018-09-25T12:05:15.725Z,19.11
2018-09-25T12:07:49.569Z,18.32
2018-09-25T12:10:23.242Z,17.55
2018-09-25T12:12:57.047Z,17.06
2018-09-25T12:15:31.940Z,17.43
2018-09-25T12:18:05.754Z,19.70
2018-09-25T12:20:39.386Z,19.89
2018-09-25T12:23:13.593Z,26.22
2018-09-25T12:25:48.291Z,28.41
2018-09-25T12:28:22.351Z,28.71
2018-09-25T12:30:55.956Z,31.37
2018-09-25T12:33:29.665Z,31.80
2018-09-25T12:36:05.021Z,27.98
2018-09-25T12:38:38.710Z,28.70
2018-09-25T12:41:12.634Z,25.64
2018-09-25T12:43:46.437Z,23.01
2018-09-25T12:46:20.450Z,22.87
2018-09-25T12:48:54.419Z,27.23
2018-09-25T12:51:28.189Z,28.73
2018-09-25T12:54:02.252Z,30.07
2018-09-25T12:56:36.829Z,29.63
2018-09-25T12:59:10.517Z,29.76
2018-09-25T13:01:44.331Z,29.38
2018-09-25T13:04:17.954Z,28.38
2018-09-25T13:06:52.634Z,24.96
2018-09-25T13:09:26.298Z,24.60
2018-09-25T13:11:59.978Z,26.63
2018-09-25T13:14:33.905Z,25.30
2018-09-25T13:17:08.522Z,21.97
2018-09-25T13:19:42.251Z,24.58
2018-09-25T13:22:16.074Z,27.84
2018-09-25T13:24:50.749Z,27.40
2018-09-25T13:27:25.648Z,26.62
2018-09-25T13:29:59.413Z,27.80
2018-09-25T13:32:33.155Z,28.76
2018-09-25T13:35:06.874Z,28.51
2018-09-25T13:37:40.809Z,29.42
2018-09-25T13:40:14.840Z,28.96
2018-09-25T13:42:49.093Z,28.08
2018-09-25T13:45:22.925Z,28.24
2018-09-25T13:47:57.011Z,26.76
2018-09-25T13:50:30.722Z,26.82
2018-09-25T13:53:04.481Z,28.39
2018-09-25T13:55:38.297Z,28.84
2018-09-25T13:58:12.119Z,28.00
2018-09-25T14:00:45.946Z,27.19
2018-09-25T14:03:19.811Z,28.36
2018-09-25T14:05:53.622Z,27.71
2018-09-25T14:08:27.906Z,29.08
2018-09-25T14:11:01.713Z,29.49
2018-09-25T14:13:35.558Z,28.71
2018-09-25T14:16:09.397Z,25.03
2018-09-25T14:18:43.323Z,21.82
2018-09-25T14:21:17.114Z,19.49
2018-09-25T14:23:50.842Z,20.71
2018-09-25T14:26:24.465Z,23.18
2018-09-25T14:28:58.541Z,23.87
2018-09-25T14:31:32.253Z,24.40
2018-09-25T14:34:05.807Z,25.04
2018-09-25T14:36:39.650Z,24.76
2018-09-25T14:39:14.063Z,23.04
2018-09-25T14:41:47.906Z,23.16
2018-09-25T14:44:21.433Z,23.99
2018-09-25T14:46:55.143Z,23.99
2018-09-25T14:49:28.798Z,23.67
2018-09-25T14:52:02.623Z,24.13
2018-09-25T14:54:36.392Z,22.87
2018-09-25T14:57:10.189Z,23.90
2018-09-25T14:59:44.013Z,23.59
2018-09-25T15:02:17.702Z,23.50
2018-09-25T15:04:51.294Z,22.58
2018-09-25T15:07:24.846Z,22.74
2018-09-25T15:09:58.678Z,23.14
2018-09-25T15:12:32.537Z,23.25
2018-09-25T15:15:06.251Z,22.88
2018-09-25T15:17:40.420Z,23.24
2018-09-25T15:20:14.211Z,24.73
2018-09-25T15:22:48.058Z,23.58
2018-09-25T15:25:22.276Z,22.81
2018-09-25T15:27:56.018Z,22.42
2018-09-25T15:30:29.771Z,21.22
2018-09-25T15:33:03.651Z,20.23
2018-09-25T15:35:37.447Z,18.87
2018-09-25T15:38:11.299Z,17.72
2018-09-25T15:40:45.474Z,17.01
2018-09-25T15:43:19.237Z,16.29
2018-09-25T15:45:52.901Z,16.27
2018-09-25T15:48:27.078Z,16.38
2018-09-25T15:51:00.854Z,16.01
2018-09-25T15:53:34.674Z,15.72
2018-09-25T15:56:08.471Z,15.72
2018-09-25T15:58:42.338Z,15.73
2018-09-25T16:01:16.057Z,15.88
2018-09-25T16:03:50.130Z,16.42
2018-09-25T16:06:25.631Z,16.08
2018-09-25T16:08:59.435Z,16.07
2018-09-25T16:11:33.514Z,15.84
2018-09-25T16:14:07.323Z,16.09
2018-09-25T16:16:40.949Z,15.99
2018-09-25T16:19:14.563Z,16.17
2018-09-25T16:21:56.447Z,15.91
2018-09-25T16:24:35.964Z,15.55
2018-09-25T16:27:13.986Z,15.28
2018-09-25T16:29:54.423Z,15.17
2018-09-25T16:32:28.561Z,14.93
2018-09-25T16:35:02.238Z,14.57
2018-09-25T16:37:35.958Z,14.46
2018-09-25T16:40:10.614Z,14.28
2018-09-25T16:42:44.304Z,14.24
2018-09-25T16:45:18.092Z,14.00
2018-09-25T16:47:54.792Z,13.87
2018-09-25T16:50:30.473Z,13.86
2018-09-25T16:53:04.953Z,13.72
2018-09-25T16:55:38.753Z,13.51
2018-09-25T16:58:12.315Z,13.40
2018-09-25T17:00:46.369Z,13.20
2018-09-25T17:03:20.057Z,12.73
2018-09-25T17:05:53.814Z,12.44
2018-09-25T17:08:27.425Z,12.31
2018-09-25T17:11:01.310Z,11.98
2018-09-25T17:13:34.970Z,11.74
2018-09-25T17:16:08.690Z,11.43
2018-09-25T17:18:43.352Z,11.12
2018-09-25T17:21:18.932Z,10.93
2018-09-25T17:23:52.720Z,10.58
2018-09-25T17:26:26.557Z,10.41
2018-09-25T17:29:00.205Z,10.14
2018-09-25T17:31:34.179Z,10.02
2018-09-25T17:34:08.138Z,9.83
2018-09-25T17:36:41.866Z,9.63
2018-09-25T17:39:15.998Z,9.58
2018-09-25T17:41:50.729Z,9.56
2018-09-25T17:44:24.583Z,9.45
2018-09-25T17:46:58.254Z,9.11
2018-09-25T17:49:32.114Z,8.98
2018-09-25T17:52:07.686Z,8.74
2018-09-25T17:54:41.481Z,8.53
2018-09-25T17:57:15.323Z,8.33
2018-09-25T17:59:49.130Z,8.34
2018-09-25T18:02:22.786Z,8.37
2018-09-25T18:04:56.494Z,8.34
2018-09-25T18:07:30.311Z,8.46
2018-09-25T18:10:04.006Z,8.29
2018-09-25T18:12:38.630Z,8.11
2018-09-25T18:15:13.426Z,8.05
2018-09-25T18:17:47.196Z,8.01
2018-09-25T18:20:20.919Z,7.82
2018-09-25T18:22:54.675Z,7.78
2018-09-25T18:25:28.375Z,7.80
2018-09-25T18:28:02.473Z,7.72
2018-09-25T18:30:36.131Z,7.53
2018-09-25T18:33:10.231Z,7.46
2018-09-25T18:35:44.045Z,7.30
2018-09-25T18:38:17.875Z,7.14
2018-09-25T18:40:51.728Z,7.14
2018-09-25T18:43:25.524Z,7.21
2018-09-25T18:46:00.820Z,7.23
2018-09-25T18:48:34.565Z,7.23
2018-09-25T18:51:08.395Z,7.03
2018-09-25T18:53:42.274Z,7.14
2018-09-25T18:56:16.086Z,7.15
2018-09-25T18:58:49.881Z,6.94
2018-09-25T19:01:23.714Z,6.75
2018-09-25T19:03:57.363Z,6.65
2018-09-25T19:06:31.154Z,6.66
2018-09-25T19:09:05.126Z,6.68
2018-09-25T19:11:39.021Z,6.68
2018-09-25T19:14:12.793Z,6.73
2018-09-25T19:16:46.421Z,6.80
2018-09-25T19:19:21.980Z,6.68
2018-09-25T19:21:55.749Z,6.56
2018-09-25T19:24:29.533Z,6.64
2018-09-25T19:27:03.545Z,6.50
2018-09-25T19:29:37.502Z,6.76
2018-09-25T19:32:11.414Z,6.54
2018-09-25T19:34:45.212Z,6.46
2018-09-25T19:37:18.838Z,6.45
2018-09-25T19:39:52.470Z,6.38
2018-09-25T19:42:26.179Z,6.28
2018-09-25T19:44:59.843Z,6.22
2018-09-25T19:47:33.518Z,6.19
2018-09-25T19:50:07.357Z,5.94
2018-09-25T19:52:41.050Z,6.13
2018-09-25T19:55:14.758Z,6.11
2018-09-25T19:57:48.614Z,5.93
2018-09-25T20:00:23.013Z,5.89
2018-09-25T20:02:58.060Z,5.90
2018-09-25T20:05:31.858Z,5.85
2018-09-25T20:08:05.582Z,5.97
2018-09-25T20:10:39.258Z,5.80
2018-09-25T20:13:13.161Z,5.79
2018-09-25T20:15:47.403Z,5.60
2018-09-25T20:18:21.182Z,5.58
2018-09-25T20:20:54.848Z,5.59
2018-09-25T20:23:28.674Z,5.61
2018-09-25T20:26:02.538Z,5.58
2018-09-25T20:28:36.352Z,5.65
2018-09-25T20:31:10.203Z,5.58
2018-09-25T20:33:44.035Z,5.56
2018-09-25T20:36:18.090Z,5.58
2018-09-25T20:38:51.842Z,5.41
2018-09-25T20:41:25.523Z,5.40
2018-09-25T20:43:59.263Z,5.50
2018-09-25T20:46:33.018Z,5.35
2018-09-25T20:49:06.783Z,5.32
2018-09-25T20:51:40.361Z,5.28
2018-09-25T20:54:14.059Z,5.29
2018-09-25T20:56:47.750Z,5.15
2018-09-25T20:59:21.409Z,5.06
2018-09-25T21:01:55.165Z,5.01
2018-09-25T21:04:28.926Z,5.09
2018-09-25T21:07:02.603Z,5.16
2018-09-25T21:09:36.299Z,5.11
2018-09-25T21:12:10.083Z,5.09
2018-09-25T21:14:43.898Z,5.00
2018-09-25T21:17:17.718Z,4.97
2018-09-25T21:19:51.431Z,4.85
2018-09-25T21:22:25.126Z,4.70
2018-09-25T21:24:58.824Z,4.79
2018-09-25T21:27:32.614Z,4.87
2018-09-25T21:30:06.425Z,4.78
2018-09-25T21:32:40.221Z,4.90
2018-09-25T21:35:14.039Z,4.81
2018-09-25T21:37:47.831Z,4.76
2018-09-25T21:40:21.694Z,4.73
2018-09-25T21:42:55.417Z,4.82
2018-09-25T21:45:29.702Z,4.84
2018-09-25T21:48:03.451Z,4.79
2018-09-25T21:50:37.274Z,4.73
2018-09-25T21:53:10.997Z,4.71
2018-09-25T21:55:44.826Z,4.75
2018-09-25T21:58:18.882Z,4.76
2018-09-25T22:00:52.549Z,4.72
2018-09-25T22:03:26.295Z,4.77
2018-09-25T22:06:00.045Z,4.77
2018-09-25T22:08:33.719Z,4.68
2018-09-25T22:11:14.639Z,4.74
2018-09-25T22:13:48.462Z,4.72
2018-09-25T22:16:22.670Z,4.74
2018-09-25T22:18:57.121Z,4.79
2018-09-25T22:21:30.833Z,4.76
2018-09-25T22:24:04.556Z,4.73
2018-09-25T22:26:38.439Z,4.74
2018-09-25T22:29:12.561Z,4.74
2018-09-25T22:31:46.402Z,4.66
2018-09-25T22:34:19.926Z,4.68
2018-09-25T22:36:53.603Z,4.80
2018-09-25T22:39:27.410Z,4.80
2018-09-25T22:42:01.225Z,4.80
2018-09-25T22:44:35.089Z,4.61
2018-09-25T22:47:08.918Z,4.56
2018-09-25T22:49:42.605Z,4.45
2018-09-25T22:52:16.330Z,4.46
2018-09-25T22:54:50.002Z,4.54
2018-09-25T22:57:23.686Z,4.38
2018-09-25T22:59:57.369Z,4.35
2018-09-25T23:02:31.069Z,4.20
2018-09-25T23:05:04.910Z,4.23
2018-09-25T23:07:38.579Z,4.18
2018-09-25T23:10:12.421Z,4.09
2018-09-25T23:12:46.146Z,3.92
2018-09-25T23:15:19.961Z,3.94
2018-09-25T23:17:53.717Z,3.88
2018-09-25T23:20:27.455Z,3.93
2018-09-25T23:23:01.162Z,3.80
2018-09-25T23:25:34.829Z,3.79
2018-09-25T23:28:08.529Z,3.86
2018-09-25T23:30:42.317Z,3.71
2018-09-25T23:33:16.114Z,3.84
2018-09-25T23:35:49.774Z,3.80
2018-09-25T23:38:23.566Z,4.23
2018-09-25T23:40:58.265Z,3.99
2018-09-25T23:43:33.949Z,4.21
2018-09-25T23:46:06.580Z,4.58
2018-09-25T23:48:41.241Z,5.28
2018-09-25T23:51:15.038Z,5.85
2018-09-25T23:53:51.711Z,6.26
2018-09-25T23:56:24.500Z,6.00
2018-09-25T23:58:56.178Z,6.34
